Time;durP1;ratioP1;P1;durP2;ratioP2;P2;SDS_P1;SDS_P2;PMS_P1;PMS_P2;Temp;Humidity;BMP_temperature;BMP_pressure;BME280_temperature;BME280_humidity;BME280_pressure;Samples;Min_cycle;Max_cycle;Signal;HPM_P1;HPM_P2
2023/03/24 00:01:04;;;;;;;29.50;5.32;;;;;;;10.83;77.22;98430.13;4934359;29;20252;-93
2023/03/24 00:03:30;;;;;;;50.40;3.90;;;;;;;11.01;76.62;98422.47;4933325;29;20051;-93
2023/03/24 00:06:01;;;;;;;42.28;4.40;;;;;;;10.91;77.40;98419.91;4935939;29;20028;-92
2023/03/24 00:08:29;;;;;;;61.13;7.20;;;;;;;11.02;76.92;98433.59;4934939;29;20035;-94
2023/03/24 00:10:59;;;;;;;25.33;3.85;;;;;;;11.05;77.05;98436.72;4934665;29;20086;-94
2023/03/24 00:13:24;;;;;;;36.88;4.75;;;;;;;10.54;78.90;98427.59;4935906;29;20051;-94
2023/03/24 00:15:50;;;;;;;30.38;4.97;;;;;;;10.48;78.07;98407.50;4934016;29;20561;-92
2023/03/24 00:18:17;;;;;;;34.38;3.47;;;;;;;10.65;78.21;98430.00;4935899;29;20063;-93
2023/03/24 00:20:44;;;;;;;36.00;3.30;;;;;;;10.45;79.56;98421.47;4933642;29;20486;-93
2023/03/24 00:23:11;;;;;;;34.65;4.93;;;;;;;10.17;80.80;98443.72;4935569;29;20032;-92
2023/03/24 00:25:38;;;;;;;37.40;4.05;;;;;;;10.48;79.21;98436.69;4933408;29;20034;-93
2023/03/24 00:28:05;;;;;;;40.60;4.60;;;;;;;10.84;77.41;98451.56;4934746;29;20490;-94
2023/03/24 00:30:32;;;;;;;31.38;3.30;;;;;;;10.75;77.09;98447.25;4934657;29;20055;-93
2023/03/24 00:32:57;;;;;;;43.70;7.22;;;;;;;10.63;76.72;98442.25;4934582;29;20474;-93
2023/03/24 00:35:23;;;;;;;29.92;3.25;;;;;;;10.62;76.77;98468.97;4934208;29;20114;-95
2023/03/24 00:37:50;;;;;;;44.17;3.42;;;;;;;10.44;78.22;98460.31;4934464;29;20068;-92
2023/03/24 00:40:18;;;;;;;37.35;4.70;;;;;;;10.37;78.00;98454.06;4935813;29;20056;-94
2023/03/24 00:42:45;;;;;;;41.53;4.05;;;;;;;10.50;77.68;98475.22;4934235;29;20106;-92
2023/03/24 00:45:14;;;;;;;39.28;3.95;;;;;;;10.62;76.92;98474.13;4933878;29;20051;-93
2023/03/24 00:47:40;;;;;;;38.78;3.88;;;;;;;10.50;76.96;98464.91;4934480;29;20020;-93
2023/03/24 00:50:09;;;;;;;24.33;3.78;;;;;;;10.57;76.88;98486.63;4934121;29;20031;-92
2023/03/24 00:52:34;;;;;;;41.63;3.83;;;;;;;10.49;76.65;98478.78;4934215;29;20028;-93
2023/03/24 00:55:02;;;;;;;26.65;3.17;;;;;;;10.35;77.22;98484.31;4933885;29;20387;-93
2023/03/24 00:57:28;;;;;;;36.70;4.07;;;;;;;10.25;77.71;98472.19;4933962;29;20032;-92
2023/03/24 00:59:55;;;;;;;34.97;4.50;;;;;;;10.33;77.21;98499.13;4934177;29;20133;-93
2023/03/24 01:02:26;;;;;;;34.13;3.85;;;;;;;10.34;77.36;98485.25;4934167;29;20028;-92
2023/03/24 01:04:58;;;;;;;43.65;3.95;;;;;;;10.33;77.85;98499.91;4934065;29;20035;-93
2023/03/24 01:07:25;;;;;;;30.70;4.97;;;;;;;10.46;77.64;98504.81;4934027;29;20402;-93
2023/03/24 01:09:56;;;;;;;42.05;4.55;;;;;;;10.39;76.64;98504.56;4933947;29;20027;-92
2023/03/24 01:12:42;;;;;;;40.35;5.22;;;;;;;10.55;74.82;98514.31;4934028;29;20483;-94
2023/03/24 01:15:13;;;;;;;46.00;4.70;;;;;;;10.26;77.65;98498.78;4933264;29;20126;-93
2023/03/24 01:17:39;;;;;;;36.75;4.20;;;;;;;10.19;77.05;98513.16;4933906;29;20123;-92
2023/03/24 01:20:10;;;;;;;30.20;4.15;;;;;;;10.27;76.49;98503.81;4934024;29;20067;-93
2023/03/24 01:22:40;;;;;;;31.60;4.68;;;;;;;10.24;77.14;98521.31;4933740;29;20486;-93
2023/03/24 01:25:08;;;;;;;36.45;4.85;;;;;;;10.05;77.36;98501.50;4933771;29;20103;-93
2023/03/24 01:27:35;;;;;;;47.78;4.70;;;;;;;10.13;77.01;98527.41;4933851;29;20038;-92
2023/03/24 01:30:01;;;;;;;49.25;7.60;;;;;;;10.07;77.33;98521.03;4933852;29;20043;-93
2023/03/24 01:32:28;;;;;;;45.67;4.55;;;;;;;10.07;77.17;98520.19;4933874;29;20030;-93
2023/03/24 01:34:53;;;;;;;28.17;3.20;;;;;;;10.14;77.08;98521.28;4933638;29;20035;-93
2023/03/24 01:37:19;;;;;;;28.38;3.28;;;;;;;10.14;76.71;98536.75;4933759;29;20754;-93
2023/03/24 01:39:45;;;;;;;33.40;4.20;;;;;;;10.00;77.77;98532.81;4934095;29;20370;-93
2023/03/24 01:42:22;;;;;;;38.42;6.00;;;;;;;10.05;77.17;98542.72;4933744;29;20051;-93
2023/03/24 01:44:50;;;;;;;37.58;3.55;;;;;;;10.11;77.06;98534.47;4933652;29;20079;-92
2023/03/24 01:47:16;;;;;;;36.83;4.03;;;;;;;10.01;77.57;98554.25;4933636;29;20019;-93
2023/03/24 01:49:50;;;;;;;35.75;5.05;;;;;;;10.02;77.20;98550.69;4933659;29;20491;-93
2023/03/24 01:52:27;;;;;;;38.70;4.82;;;;;;;10.05;77.02;98548.69;4933734;29;20036;-93
2023/03/24 01:54:59;;;;;;;31.95;3.03;;;;;;;9.91;77.45;98545.66;4933733;29;20028;-93
2023/03/24 01:57:41;;;;;;;;;;;;;;;10.15;76.06;98569.34;4934352;29;20070;-93
2023/03/24 02:00:11;;;;;;;36.53;3.50;;;;;;;9.99;77.01;98563.84;4933507;29;19914;-93
2023/03/24 02:02:39;;;;;;;34.85;3.47;;;;;;;9.88;77.94;98563.97;4934039;29;20028;-93
2023/03/24 02:05:09;;;;;;;41.88;4.25;;;;;;;9.85;77.36;98549.56;4933617;29;20035;-93
2023/03/24 02:07:43;;;;;;;33.88;3.70;;;;;;;9.84;77.05;98564.22;4935575;29;20106;-93
2023/03/24 02:10:13;;;;;;;35.47;3.35;;;;;;;9.80;77.21;98569.75;4938155;29;20039;-93
2023/03/24 02:12:40;;;;;;;24.27;3.83;;;;;;;9.20;78.93;98559.28;4936827;29;20032;-92
2023/03/24 02:15:07;;;;;;;33.22;3.97;;;;;;;9.51;79.24;98559.31;4936729;29;20042;-93
2023/03/24 02:18:09;;;;;;;46.67;4.60;;;;;;;9.71;78.48;98562.81;4937100;29;20059;-93
2023/03/24 02:20:53;;;;;;;35.40;3.08;;;;;;;9.77;77.35;98583.69;4936791;29;20031;-94
2023/03/24 02:23:37;;;;;;;23.00;3.15;;;;;;;9.95;76.83;98575.38;4937933;29;20075;-93
2023/03/24 02:26:23;;;;;;;44.17;3.75;;;;;;;9.54;77.26;98553.91;4936573;29;20023;-93
2023/03/24 02:29:07;;;;;;;24.05;3.08;;;;;;;9.89;77.38;98583.63;4937905;29;20047;-93
2023/03/24 02:31:44;;;;;;;27.98;2.90;;;;;;;9.77;77.42;98583.69;4936606;29;20032;-93
2023/03/24 02:34:35;;;;;;;38.42;3.22;;;;;;;9.64;77.63;98577.97;4936626;29;20059;-93
2023/03/24 02:37:32;;;;;;;36.85;6.22;;;;;;;9.77;75.93;98570.00;4936476;29;20521;-94
2023/03/24 02:40:28;;;;;;;32.15;5.47;;;;;;;9.72;77.05;98580.69;4936909;29;20028;-92
2023/03/24 02:42:56;;;;;;;29.08;3.65;;;;;;;9.50;77.00;98581.66;4936493;29;20028;-94
2023/03/24 02:45:37;;;;;;;30.88;3.67;;;;;;;9.60;76.05;98579.16;4936636;29;20059;-92
2023/03/24 02:48:30;;;;;;;38.47;3.20;;;;;;;9.36;76.31;98582.81;4936021;29;20034;-93
2023/03/24 02:51:20;;;;;;;26.83;2.70;;;;;;;9.48;77.17;98585.31;4936347;29;20035;-93
2023/03/24 02:54:00;;;;;;;34.00;4.07;;;;;;;9.46;77.22;98566.59;4937316;29;20111;-94
2023/03/24 02:56:41;;;;;;;28.20;2.78;;;;;;;9.32;76.84;98567.75;4936280;29;20506;-93
2023/03/24 02:59:13;;;;;;;39.08;3.53;;;;;;;9.34;76.63;98574.41;4935952;29;20036;-94
2023/03/24 03:01:53;;;;;;;29.55;3.33;;;;;;;9.31;77.10;98579.78;4936212;29;20621;-92
2023/03/24 03:04:28;;;;;;;28.20;3.03;;;;;;;9.20;78.00;98572.13;4935878;29;20036;-93
2023/03/24 03:06:57;;;;;;;36.72;4.15;;;;;;;9.32;77.27;98581.44;4937095;29;20038;-93
2023/03/24 03:09:26;;;;;;;31.88;2.95;;;;;;;9.11;76.44;98554.88;4936026;29;20031;-92
2023/03/24 03:11:56;;;;;;;34.20;3.33;;;;;;;9.12;77.51;98577.06;4937233;29;20479;-94
2023/03/24 03:14:29;;;;;;;28.73;3.63;;;;;;;9.04;77.84;98562.25;4937251;29;20031;-93
2023/03/24 03:17:08;;;;;;;37.65;3.88;;;;;;;9.00;77.84;98560.91;4935969;29;20112;-93
2023/03/24 03:19:42;;;;;;;40.78;4.13;;;;;;;8.90;78.13;98568.53;4935460;29;20030;-93
2023/03/24 03:22:15;;;;;;;26.63;2.80;;;;;;;9.12;77.86;98570.19;4935491;29;20030;-93
2023/03/24 03:24:43;;;;;;;30.20;3.60;;;;;;;9.04;76.85;98580.28;4935465;29;20099;-93
2023/03/24 03:27:15;;;;;;;26.58;3.42;;;;;;;8.89;77.82;98561.75;4935730;29;20031;-95
2023/03/24 03:29:45;;;;;;;28.33;2.83;;;;;;;9.03;78.13;98580.41;4935620;29;20031;-93
2023/03/24 03:32:16;;;;;;;23.75;3.45;;;;;;;8.93;78.23;98563.13;4935590;29;20027;-93
2023/03/24 03:34:53;;;;;;;28.00;3.30;;;;;;;9.16;76.96;98588.75;4935291;29;20031;-92
2023/03/24 03:38:05;;;;;;;25.05;3.05;;;;;;;9.27;76.81;98588.72;4935368;29;20191;-93
2023/03/24 03:40:37;;;;;;;21.02;2.72;;;;;;;9.19;76.44;98585.94;4921216;29;20039;-91
2023/03/24 03:43:04;;;;;;;25.90;2.55;;;;;;;9.12;76.73;98584.78;4935177;29;20032;-92
2023/03/24 03:45:29;;;;;;;19.35;2.55;;;;;;;9.03;76.35;98585.56;4935507;29;20027;-93
2023/03/24 03:47:55;;;;;;;38.38;3.15;;;;;;;9.00;76.77;98591.78;4935314;29;20039;-92
2023/03/24 03:50:20;;;;;;;19.27;2.85;;;;;;;8.97;76.79;98572.25;4932180;29;20032;-93
2023/03/24 03:52:46;;;;;;;26.52;2.55;;;;;;;9.00;76.82;98572.00;4931168;29;20122;-94
2023/03/24 03:55:13;;;;;;;23.55;2.95;;;;;;;9.05;75.59;98568.25;4934947;29;20383;-93
2023/03/24 03:57:39;;;;;;;18.65;2.75;;;;;;;8.88;76.06;98569.59;4935094;29;20490;-95
2023/03/24 04:00:11;;;;;;;34.13;4.55;;;;;;;8.79;75.97;98577.09;4935032;29;20410;-93
2023/03/24 04:02:55;;;;;;;19.27;2.10;;;;;;;8.80;75.73;98595.91;4935051;29;20027;-92
2023/03/24 04:05:35;;;;;;;17.95;2.40;;;;;;;8.69;75.47;98598.53;4934613;29;20070;-92
2023/03/24 04:08:12;;;;;;;31.98;3.22;;;;;;;8.37;79.08;98594.16;4934796;29;20050;-94
2023/03/24 04:10:49;;;;;;;23.45;4.07;;;;;;;8.47;76.49;98592.50;4935747;29;20035;-92
2023/03/24 04:13:48;;;;;;;23.55;2.80;;;;;;;8.26;79.68;98591.59;4934550;29;20090;-93
2023/03/24 04:16:40;;;;;;;27.88;4.20;;;;;;;8.45;77.64;98596.16;4933766;29;20403;-93
2023/03/24 04:19:10;;;;;;;17.70;2.40;;;;;;;8.29;79.81;98596.47;4926363;29;20042;-93
2023/03/24 04:21:50;;;;;;;34.85;3.25;;;;;;;8.38;79.13;98585.47;4934380;29;20032;-94
2023/03/24 04:24:34;;;;;;;21.80;2.70;;;;;;;8.50;78.65;98594.84;4933933;29;20059;-94
2023/03/24 04:27:15;;;;;;;29.75;2.50;;;;;;;8.65;77.71;98604.84;4934715;29;20058;-94
2023/03/24 04:29:57;;;;;;;29.55;3.20;;;;;;;8.74;77.36;98596.41;4933864;29;20034;-92
2023/03/24 04:32:48;;;;;;;31.65;2.78;;;;;;;8.70;76.96;98580.41;4934426;29;20028;-93
2023/03/24 04:35:30;;;;;;;40.15;4.20;;;;;;;8.75;77.11;98593.75;4935784;29;20038;-92
2023/03/24 04:38:01;;;;;;;26.88;2.70;;;;;;;8.69;76.89;98572.81;4953780;29;20482;-94
2023/03/24 04:40:31;;;;;;;33.05;3.60;;;;;;;8.59;76.93;98577.06;4936051;29;20164;-93
2023/03/24 04:43:02;;;;;;;31.33;4.05;;;;;;;8.56;77.49;98586.66;4934124;29;20234;-92
2023/03/24 04:45:32;;;;;;;36.70;3.90;;;;;;;8.68;76.92;98576.31;4930800;29;20031;-92
2023/03/24 04:48:00;;;;;;;31.17;3.13;;;;;;;8.84;76.38;98566.44;4951218;29;20031;-93
2023/03/24 04:50:50;;;;;;;32.63;4.72;;;;;;;9.07;75.89;98567.19;4947933;28;20035;-92
2023/03/24 04:53:15;;;;;;;24.45;3.03;;;;;;;8.93;75.94;98576.00;4928512;29;20407;-93
2023/03/24 04:55:59;;;;;;;26.98;2.97;;;;;;;9.19;75.02;98580.78;4934267;29;20027;-93
2023/03/24 04:58:24;;;;;;;26.92;2.90;;;;;;;8.78;76.38;98572.09;4938449;29;20034;-93
2023/03/24 05:00:50;;;;;;;40.15;3.22;;;;;;;8.86;76.77;98587.72;4953341;29;20027;-93
2023/03/24 05:03:17;;;;;;;44.17;4.10;;;;;;;9.04;77.45;98587.19;4942260;28;20368;-93
2023/03/24 05:05:44;;;;;;;33.25;4.30;;;;;;;8.93;76.46;98586.31;4934210;29;20054;-94
2023/03/24 05:08:10;;;;;;;35.92;3.67;;;;;;;9.15;76.51;98603.41;4933994;29;20034;-93
2023/03/24 05:10:36;;;;;;;35.65;4.43;;;;;;;9.23;76.33;98601.97;4933813;29;20028;-93
2023/03/24 05:13:03;;;;;;;31.00;3.58;;;;;;;9.29;76.76;98597.13;4943020;29;20032;-94
2023/03/24 05:15:29;;;;;;;39.75;5.65;;;;;;;9.21;77.05;98609.78;4942568;28;20051;-93
2023/03/24 05:17:55;;;;;;;39.92;5.43;;;;;;;9.20;77.04;98603.03;4933790;29;20059;-92
2023/03/24 05:20:21;;;;;;;39.10;4.07;;;;;;;9.06;77.57;98595.59;4933866;29;20070;-93
2023/03/24 05:22:48;;;;;;;32.80;4.00;;;;;;;9.10;77.56;98602.97;4934073;29;20399;-94
2023/03/24 05:25:14;;;;;;;34.88;5.57;;;;;;;9.30;77.06;98605.66;4934185;29;20114;-93
2023/03/24 05:27:40;;;;;;;53.85;4.93;;;;;;;9.27;76.46;98598.22;4933352;29;20031;-93
2023/03/24 05:30:06;;;;;;;42.75;6.60;;;;;;;9.29;76.45;98602.28;4930971;29;20032;-93
2023/03/24 05:32:31;;;;;;;47.50;4.63;;;;;;;9.24;77.60;98612.13;4916012;29;20024;-92
2023/03/24 05:34:57;;;;;;;48.38;6.00;;;;;;;9.27;76.93;98617.03;4950515;28;20381;-94
2023/03/24 05:37:22;;;;;;;30.40;3.58;;;;;;;9.36;76.31;98618.88;4953107;28;20031;-93
2023/03/24 05:39:48;;;;;;;41.20;3.80;;;;;;;9.05;77.52;98630.81;4952884;28;20561;-95
2023/03/24 05:42:15;;;;;;;34.55;6.55;;;;;;;9.25;78.63;98621.50;4955472;28;20038;-94
2023/03/24 05:44:40;;;;;;;42.50;4.30;;;;;;;9.35;77.24;98622.38;4956633;28;20063;-93
2023/03/24 05:47:06;;;;;;;48.17;4.05;;;;;;;9.30;77.45;98627.06;4956732;29;20054;-93
2023/03/24 05:49:31;;;;;;;41.70;4.28;;;;;;;9.37;77.46;98620.50;4945353;28;20509;-93
2023/03/24 05:51:57;;;;;;;26.75;3.30;;;;;;;9.42;76.53;98613.19;4937605;29;20032;-94
2023/03/24 05:54:22;;;;;;;42.15;4.18;;;;;;;9.27;76.96;98601.59;4937592;29;20087;-94
2023/03/24 05:56:48;;;;;;;46.08;3.80;;;;;;;9.49;76.40;98631.56;4937575;29;20032;-93
2023/03/24 05:59:14;;;;;;;46.80;4.25;;;;;;;9.45;77.25;98621.63;4934391;29;20043;-93
2023/03/24 06:01:41;;;;;;;40.20;3.88;;;;;;;9.36;77.58;98615.47;4918545;29;20028;-94
2023/03/24 06:04:07;;;;;;;41.10;3.35;;;;;;;9.47;77.75;98619.75;4918164;29;20501;-94
2023/03/24 06:06:32;;;;;;;31.17;4.10;;;;;;;9.58;77.49;98632.53;4934393;29;20123;-92
2023/03/24 06:09:01;;;;;;;35.05;3.83;;;;;;;9.73;76.87;98636.44;4919182;29;20024;-94
2023/03/24 06:11:27;;;;;;;51.00;4.32;;;;;;;9.53;77.54;98624.38;4950335;29;20083;-93
2023/03/24 06:13:52;;;;;;;38.85;4.03;;;;;;;9.60;77.04;98638.38;4945839;28;20023;-94
2023/03/24 06:16:22;;;;;;;34.13;3.78;;;;;;;9.72;76.88;98633.97;4956455;29;20027;-93
2023/03/24 06:18:51;;;;;;;56.03;5.57;;;;;;;9.74;76.95;98629.53;4940121;28;20434;-93
2023/03/24 06:21:17;;;;;;;32.38;3.70;;;;;;;9.86;76.03;98624.16;4937061;29;20059;-95
2023/03/24 06:23:42;;;;;;;37.17;4.30;;;;;;;9.89;76.37;98630.00;4937077;29;20024;-94
2023/03/24 06:26:10;;;;;;;45.70;7.13;;;;;;;10.10;75.59;98630.78;4937191;29;20032;-94
2023/03/24 06:28:38;;;;;;;39.45;4.47;;;;;;;10.02;75.30;98626.28;4938060;29;20024;-94
2023/03/24 06:31:13;;;;;;;46.00;3.67;;;;;;;10.32;75.06;98639.31;4936753;29;20039;-94
2023/03/24 06:33:41;;;;;;;49.75;5.95;;;;;;;10.03;76.24;98648.53;4938007;29;20059;-93
2023/03/24 06:36:07;;;;;;;37.88;3.30;;;;;;;10.23;74.99;98644.25;4936965;29;20030;-93
2023/03/24 06:38:32;;;;;;;42.72;5.07;;;;;;;10.27;74.83;98627.59;4936930;29;20023;-93
2023/03/24 06:41:02;;;;;;;48.78;5.80;;;;;;;10.63;75.04;98658.97;4954129;29;20083;-93
2023/03/24 06:43:28;;;;;;;38.80;3.40;;;;;;;10.62;73.64;98649.56;4950914;28;20031;-94
2023/03/24 06:45:54;;;;;;;28.30;4.15;;;;;;;10.77;73.89;98646.63;4936165;29;20050;-93
2023/03/24 06:48:20;;;;;;;59.92;6.47;;;;;;;10.68;74.03;98650.78;4936841;29;20486;-93
2023/03/24 06:50:46;;;;;;;49.38;4.47;;;;;;;10.70;73.10;98647.16;4936840;29;20055;-94
2023/03/24 06:53:11;;;;;;;40.72;3.28;;;;;;;10.85;74.23;98646.75;4935571;29;20039;-94
2023/03/24 06:55:36;;;;;;;49.70;4.30;;;;;;;10.98;73.23;98649.91;4936285;29;20035;-94
2023/03/24 06:58:02;;;;;;;27.30;3.25;;;;;;;11.00;73.34;98666.09;4936634;29;20027;-94
2023/03/24 07:00:28;;;;;;;35.85;4.00;;;;;;;10.95;73.45;98654.50;4936582;29;20023;-95
2023/03/24 07:02:54;;;;;;;32.08;4.13;;;;;;;11.19;73.50;98669.63;4936205;29;20442;-94
2023/03/24 07:05:21;;;;;;;32.70;4.90;;;;;;;11.50;71.96;98654.78;4936471;29;20398;-95
2023/03/24 07:07:47;;;;;;;38.55;4.47;;;;;;;11.44;72.86;98669.09;4933108;29;20028;-95
2023/03/24 07:10:13;;;;;;;42.67;4.47;;;;;;;11.63;72.73;98670.84;4933129;29;20028;-94
2023/03/24 07:12:39;;;;;;;31.13;4.35;;;;;;;11.93;72.26;98654.34;4917309;29;20035;-94
2023/03/24 07:15:07;;;;;;;40.90;3.70;;;;;;;11.68;72.43;98662.63;4940775;29;20020;-95
2023/03/24 07:17:32;;;;;;;40.85;3.60;;;;;;;11.89;71.43;98655.56;4948089;29;20027;-94
2023/03/24 07:19:58;;;;;;;20.35;2.67;;;;;;;12.15;72.10;98653.16;4955412;29;20030;-95
2023/03/24 07:22:23;;;;;;;27.88;3.88;;;;;;;11.87;70.92;98648.91;4937223;29;20024;-94
2023/03/24 07:24:48;;;;;;;31.23;4.50;;;;;;;12.38;71.24;98666.53;4936171;29;20031;-95
2023/03/24 07:27:14;;;;;;;35.75;4.20;;;;;;;12.73;68.98;98656.41;4935958;29;20475;-96
2023/03/24 07:29:40;;;;;;;33.28;3.38;;;;;;;12.87;67.25;98653.34;4936228;29;20023;-96
2023/03/24 07:32:06;;;;;;;37.75;3.60;;;;;;;12.95;68.76;98655.19;4935688;29;20055;-95
2023/03/24 07:34:32;;;;;;;22.98;2.63;;;;;;;12.77;68.72;98661.16;4936036;29;20027;-95
2023/03/24 07:36:58;;;;;;;24.80;3.25;;;;;;;12.63;67.92;98664.25;4936316;29;20546;-95
2023/03/24 07:39:23;;;;;;;31.40;4.47;;;;;;;12.88;68.41;98656.75;4936401;29;20054;-95
2023/03/24 07:41:49;;;;;;;27.08;4.28;;;;;;;14.19;63.67;98668.13;4935830;29;20027;-95
2023/03/24 07:44:14;;;;;;;28.98;3.72;;;;;;;15.88;59.55;98650.59;4935580;29;20380;-96
2023/03/24 07:46:40;;;;;;;21.88;3.78;;;;;;;16.78;56.68;98669.31;4935248;29;20023;-95
2023/03/24 07:49:06;;;;;;;20.92;3.42;;;;;;;19.09;52.50;98685.16;4935849;29;20087;-96
2023/03/24 07:51:32;;;;;;;21.13;3.83;;;;;;;19.87;53.21;98698.31;4935506;29;20027;-95
2023/03/24 07:53:58;;;;;;;17.17;3.38;;;;;;;19.88;49.97;98686.88;4933836;29;20036;-95
2023/03/24 07:56:23;;;;;;;21.50;3.75;;;;;;;20.97;46.40;98698.50;4934517;29;20478;-95
2023/03/24 07:58:57;;;;;;;21.25;3.45;;;;;;;22.37;44.27;98686.19;4938404;29;20053;-96
2023/03/24 08:01:26;;;;;;;19.50;3.55;;;;;;;22.97;42.06;98705.16;4939814;28;20118;-96
2023/03/24 08:03:54;;;;;;;19.75;3.78;;;;;;;22.26;42.93;98715.75;4938822;29;20040;-96
2023/03/24 08:06:20;;;;;;;20.30;3.67;;;;;;;18.10;50.95;98697.81;4933514;29;20032;-96
2023/03/24 08:08:46;;;;;;;22.52;2.97;;;;;;;16.69;53.38;98707.56;4928604;29;20039;-95
2023/03/24 08:11:11;;;;;;;21.20;4.38;;;;;;;18.67;50.63;98699.75;4935247;29;20027;-96
2023/03/24 08:13:37;;;;;;;24.80;3.17;;;;;;;17.91;51.22;98696.53;4934682;29;20038;-95
2023/03/24 08:16:03;;;;;;;22.13;3.47;;;;;;;18.16;49.88;98691.84;4934142;29;20126;-94
2023/03/24 08:18:31;;;;;;;24.55;3.33;;;;;;;17.02;53.17;98696.19;4932252;29;20027;-95
2023/03/24 08:20:57;;;;;;;27.17;3.33;;;;;;;17.18;54.28;98695.28;4932933;29;20032;-96
2023/03/24 08:23:23;;;;;;;17.20;3.25;;;;;;;20.08;48.88;98690.41;4933420;29;20066;-94
2023/03/24 08:25:49;;;;;;;17.55;2.83;;;;;;;24.75;39.81;98688.00;4932569;29;20052;-96
2023/03/24 08:28:15;;;;;;;21.40;4.00;;;;;;;24.88;38.24;98683.56;4933926;29;20024;-96
2023/03/24 08:30:44;;;;;;;11.35;3.17;;;;;;;25.81;37.53;98679.50;4933534;29;20447;-95
2023/03/24 08:33:12;;;;;;;12.85;2.45;;;;;;;27.13;33.94;98695.66;4948178;28;20563;-95
2023/03/24 08:35:38;;;;;;;14.10;3.17;;;;;;;28.73;32.46;98703.03;4933068;29;20032;-96
2023/03/24 08:38:05;;;;;;;18.38;3.15;;;;;;;28.59;30.96;98724.63;4933256;29;20020;-96
2023/03/24 08:40:33;;;;;;;22.23;2.70;;;;;;;29.51;30.63;98711.47;4933223;29;20023;-96
2023/03/24 08:43:01;;;;;;;13.07;2.45;;;;;;;31.60;27.27;98729.34;4932664;29;20427;-95
2023/03/24 08:45:30;;;;;;;12.88;2.35;;;;;;;30.73;27.03;98713.22;4933373;29;20078;-96
2023/03/24 08:47:58;;;;;;;8.85;2.35;;;;;;;31.17;26.91;98710.13;4932923;29;20027;-95
2023/03/24 08:50:26;;;;;;;14.40;2.80;;;;;;;32.46;26.98;98729.44;4933360;29;20052;-96
2023/03/24 08:52:54;;;;;;;11.80;2.10;;;;;;;31.04;26.30;98738.06;4932810;29;20030;-96
2023/03/24 08:55:20;;;;;;;16.40;3.28;;;;;;;33.50;25.44;98736.59;4933101;29;20034;-96
2023/03/24 08:57:46;;;;;;;15.00;2.95;;;;;;;31.67;25.62;98729.88;4933418;29;20031;-96
2023/03/24 09:00:14;;;;;;;8.70;2.45;;;;;;;30.42;27.70;98744.25;4933256;29;20028;-96
2023/03/24 09:02:41;;;;;;;14.30;2.33;;;;;;;31.34;26.86;98736.53;4933326;29;20031;-96
2023/03/24 09:05:07;;;;;;;20.50;2.85;;;;;;;31.51;26.22;98762.97;4932932;29;20039;-96
2023/03/24 09:07:32;;;;;;;13.40;2.05;;;;;;;33.17;24.24;98765.72;4935590;29;20111;-96
2023/03/24 09:09:58;;;;;;;17.52;2.70;;;;;;;31.76;26.20;98748.81;4933952;29;20142;-96
2023/03/24 09:12:23;;;;;;;15.27;3.28;;;;;;;29.21;27.56;98767.81;4931965;29;20028;-96
2023/03/24 09:14:49;;;;;;;13.38;2.67;;;;;;;26.54;31.98;98770.00;4930278;29;20087;-96
2023/03/24 09:17:15;;;;;;;11.43;2.10;;;;;;;31.88;25.07;98770.69;4928931;29;20032;-96
2023/03/24 09:19:41;;;;;;;9.50;2.00;;;;;;;30.69;25.04;98741.44;4932958;29;20452;-96
2023/03/24 09:22:07;;;;;;;12.45;2.72;;;;;;;24.75;35.07;98742.59;4931821;29;20091;-96
2023/03/24 09:24:32;;;;;;;16.10;2.58;;;;;;;22.11;39.16;98743.03;4932705;29;20066;-96
2023/03/24 09:26:57;;;;;;;16.90;2.85;;;;;;;20.25;43.03;98726.78;4931912;29;20382;-96
2023/03/24 09:29:23;;;;;;;14.85;2.97;;;;;;;23.71;35.42;98716.03;4932110;29;20028;-96
2023/03/24 09:31:49;;;;;;;14.55;2.25;;;;;;;24.17;35.48;98746.44;4931865;29;20039;-96
2023/03/24 09:34:15;;;;;;;15.25;2.90;;;;;;;22.42;38.73;98754.72;4931649;29;20079;-96
2023/03/24 09:36:40;;;;;;;13.75;2.75;;;;;;;26.19;32.71;98745.16;4931313;29;20564;-96
2023/03/24 09:39:05;;;;;;;17.05;2.33;;;;;;;25.71;33.53;98745.34;4932069;29;20035;-95
2023/03/24 09:41:31;;;;;;;15.70;2.55;;;;;;;23.53;35.26;98722.00;4930143;29;20016;-96
2023/03/24 09:44:09;;;;;;;11.45;2.78;;;;;;;25.08;35.12;98762.47;4931854;29;20039;-96
2023/03/24 09:46:42;;;;;;;16.00;2.63;;;;;;;21.45;40.55;98719.41;4944285;29;20059;-96
2023/03/24 09:49:15;;;;;;;16.73;2.40;;;;;;;23.02;37.06;98752.72;4932311;29;20042;-96
2023/03/24 09:51:44;;;;;;;11.65;2.00;;;;;;;21.86;39.83;98715.78;4932296;29;20059;-96
2023/03/24 09:54:36;;;;;;;12.15;2.38;;;;;;;24.40;36.51;98739.72;4937184;29;20047;-96
2023/03/24 09:57:03;;;;;;;14.85;2.70;;;;;;;26.18;32.75;98714.44;4933907;29;20031;-96
2023/03/24 09:59:38;;;;;;;8.38;1.88;;;;;;;23.76;35.64;98700.41;4932106;29;20039;-96
2023/03/24 10:02:12;;;;;;;12.13;1.83;;;;;;;21.97;41.32;98709.88;4931719;29;20031;-96
2023/03/24 10:04:38;;;;;;;11.65;1.88;;;;;;;20.63;41.43;98703.63;4930592;29;20051;-95
2023/03/24 10:07:15;;;;;;;10.90;2.20;;;;;;;21.34;39.39;98716.34;4929886;29;20127;-96
2023/03/24 10:09:58;;;;;;;11.52;2.35;;;;;;;20.70;40.91;98672.19;4955092;28;20343;-96
2023/03/24 10:12:38;;;;;;;8.45;1.92;;;;;;;20.58;40.68;98668.50;4940795;29;20032;-96
2023/03/24 10:15:07;;;;;;;11.32;2.72;;;;;;;19.90;43.14;98703.19;4940419;29;20056;-96
2023/03/24 10:17:51;;;;;;;13.48;2.38;;;;;;;20.58;43.17;98708.66;4935626;29;20024;-96
2023/03/24 10:20:43;;;;;;;13.18;2.17;;;;;;;22.71;38.17;98694.78;4935440;29;20043;-96
2023/03/24 10:23:17;;;;;;;;;;;;;;;25.14;34.50;98708.78;4930699;29;20028;-96
2023/03/24 10:26:00;;;;;;;11.25;1.63;;;;;;;26.78;33.20;98877.44;4931176;29;19914;-96
2023/03/24 10:28:37;;;;;;;8.02;1.88;;;;;;;27.94;29.01;98706.78;4931447;29;20016;-96
2023/03/24 10:31:09;;;;;;;10.75;1.70;;;;;;;21.77;37.18;98700.22;4939835;29;20035;-96
2023/03/24 10:33:38;;;;;;;;;;;;;;;18.76;43.92;98714.38;4936279;29;20044;-96
2023/03/24 10:36:04;;;;;;;7.90;1.42;;;;;;;18.90;47.03;98711.91;4936641;29;20049;-96
2023/03/24 10:38:32;;;;;;;12.55;1.65;;;;;;;19.02;47.42;98689.53;4938362;29;20082;-96
2023/03/24 10:41:01;;;;;;;10.02;2.17;;;;;;;18.82;47.17;98673.59;4941899;29;20043;-96
2023/03/24 10:43:37;;;;;;;7.63;1.70;;;;;;;27.48;34.62;98717.47;4943784;29;20071;-96
2023/03/24 10:46:10;;;;;;;6.65;1.60;;;;;;;29.78;28.03;98710.63;4949293;29;20110;-96
2023/03/24 10:48:44;;;;;;;6.43;1.05;;;;;;;30.15;28.07;98709.78;4941678;29;20028;-96
2023/03/24 10:51:18;;;;;;;5.45;1.13;;;;;;;28.05;27.86;98705.88;4945080;29;20035;-96
2023/03/24 10:54:41;;;;;;;2.38;0.68;;;;;;;27.22;28.54;98697.72;4951675;29;20059;-96
2023/03/24 10:58:23;;;;;;;;;;;;;;;;;;;;;
2023/03/24 11:02:13;;;;;;;;;;;;;;;;;;;;;
2023/03/24 13:09:04;;;;;;;9.35;2.00;;;;;;;18.97;49.21;98618.66;4970318;28;20047;-96
2023/03/24 13:21:10;;;;;;;5.95;1.27;;;;;;;18.66;50.18;98624.97;5829418;23;20055;-96
2023/03/24 13:24:14;;;;;;;7.47;1.40;;;;;;;20.16;49.02;98659.84;4944156;29;20044;-96
2023/03/24 13:32:29;;;;;;;9.93;0.85;;;;;;;19.05;47.92;98609.91;5275792;23;20063;-96
2023/03/24 13:38:45;;;;;;;6.60;1.08;;;;;;;20.59;46.61;98633.44;4944841;29;20410;-96
2023/03/24 13:50:12;;;;;;;10.18;1.80;;;;;;;19.53;47.55;98594.38;4916275;29;20103;-96
2023/03/24 13:52:44;;;;;;;6.45;1.70;;;;;;;18.06;68.43;98594.72;4934803;29;20030;-96
2023/03/24 13:55:14;;;;;;;13.45;1.77;;;;;;;16.02;71.83;98610.84;4933475;29;20036;-96
2023/03/24 13:57:50;;;;;;;12.38;1.88;;;;;;;17.51;61.90;98600.16;4934525;29;20028;-95
2023/03/24 14:00:25;;;;;;;9.77;1.60;;;;;;;19.42;52.80;98586.06;4936441;29;20478;-96
2023/03/24 14:03:33;;;;;;;7.90;1.63;;;;;;;19.44;52.40;98588.50;4942164;29;20109;-96
2023/03/24 14:06:36;;;;;;;3.67;0.90;;;;;;;19.15;52.05;98629.50;4938870;29;20023;-96
2023/03/24 14:09:31;;;;;;;8.35;1.15;;;;;;;18.59;51.97;98621.47;4940274;29;20103;-96
2023/03/24 14:12:06;;;;;;;7.25;1.08;;;;;;;19.37;51.63;98621.63;4947994;29;20127;-96
2023/03/24 14:15:13;;;;;;;4.82;1.30;;;;;;;18.52;52.06;98610.13;4947245;29;20058;-96
2023/03/24 14:17:44;;;;;;;5.55;1.17;;;;;;;18.63;52.07;98616.69;4959059;29;20486;-96
2023/03/24 14:20:31;;;;;;;5.63;1.30;;;;;;;18.68;50.92;98614.31;4940098;29;20036;-96
2023/03/24 14:23:28;;;;;;;8.23;2.15;;;;;;;18.19;48.54;98579.19;4954887;29;20072;-94
2023/03/24 14:25:55;;;;;;;10.38;1.67;;;;;;;17.40;50.89;98605.00;4935366;29;20100;-95